sensor_id;sensor_type;location;lat;lon;timestamp;P1;durP1;ratioP1;P2;durP2;ratioP2
71288;SDS011;59068;52.502;9.860;2023-06-10T00:01:44;3.77;;;3.40;;
71288;SDS011;59068;52.502;9.860;2023-06-10T00:04:12;3.10;;;2.63;;
71288;SDS011;59068;52.502;9.860;2023-06-10T00:06:37;3.50;;;2.67;;
71288;SDS011;59068;52.502;9.860;2023-06-10T00:09:06;6.00;;;3.00;;
71288;SDS011;59068;52.502;9.860;2023-06-10T00:11:36;3.53;;;2.97;;
71288;SDS011;59068;52.502;9.860;2023-06-10T00:14:02;4.63;;;2.80;;
71288;SDS011;59068;52.502;9.860;2023-06-10T00:16:27;3.17;;;2.70;;
71288;SDS011;59068;52.502;9.860;2023-06-10T00:18:53;3.40;;;2.93;;
71288;SDS011;59068;52.502;9.860;2023-06-10T00:21:21;3.43;;;3.00;;
71288;SDS011;59068;52.502;9.860;2023-06-10T00:23:46;4.43;;;3.20;;
71288;SDS011;59068;52.502;9.860;2023-06-10T00:26:12;4.90;;;3.07;;
71288;SDS011;59068;52.502;9.860;2023-06-10T00:28:37;4.50;;;3.13;;
71288;SDS011;59068;52.502;9.860;2023-06-10T00:31:02;4.97;;;3.27;;
71288;SDS011;59068;52.502;9.860;2023-06-10T00:33:29;4.20;;;3.00;;
71288;SDS011;59068;52.502;9.860;2023-06-10T00:35:54;3.50;;;2.83;;
71288;SDS011;59068;52.502;9.860;2023-06-10T00:38:20;4.70;;;3.27;;
71288;SDS011;59068;52.502;9.860;2023-06-10T00:40:45;3.60;;;2.70;;
71288;SDS011;59068;52.502;9.860;2023-06-10T00:43:10;4.03;;;2.83;;
71288;SDS011;59068;52.502;9.860;2023-06-10T00:45:36;3.30;;;2.93;;
71288;SDS011;59068;52.502;9.860;2023-06-10T00:48:01;3.50;;;3.20;;
71288;SDS011;59068;52.502;9.860;2023-06-10T00:50:27;5.97;;;3.17;;
71288;SDS011;59068;52.502;9.860;2023-06-10T00:52:53;3.77;;;3.17;;
71288;SDS011;59068;52.502;9.860;2023-06-10T00:55:19;6.17;;;3.07;;
71288;SDS011;59068;52.502;9.860;2023-06-10T00:57:45;4.73;;;3.00;;
71288;SDS011;59068;52.502;9.860;2023-06-10T01:00:11;4.90;;;3.07;;
71288;SDS011;59068;52.502;9.860;2023-06-10T01:02:37;4.53;;;3.10;;
71288;SDS011;59068;52.502;9.860;2023-06-10T01:05:03;4.57;;;2.80;;
71288;SDS011;59068;52.502;9.860;2023-06-10T01:07:30;3.20;;;2.73;;
71288;SDS011;59068;52.502;9.860;2023-06-10T01:12:43;6.10;;;3.30;;
71288;SDS011;59068;52.502;9.860;2023-06-10T01:15:14;4.70;;;3.20;;
71288;SDS011;59068;52.502;9.860;2023-06-10T01:17:59;5.50;;;3.20;;
71288;SDS011;59068;52.502;9.860;2023-06-10T01:20:29;4.30;;;3.23;;
71288;SDS011;59068;52.502;9.860;2023-06-10T01:22:57;6.30;;;3.17;;
71288;SDS011;59068;52.502;9.860;2023-06-10T01:25:23;5.53;;;3.27;;
71288;SDS011;59068;52.502;9.860;2023-06-10T01:27:53;4.60;;;3.13;;
71288;SDS011;59068;52.502;9.860;2023-06-10T01:30:21;4.77;;;3.47;;
71288;SDS011;59068;52.502;9.860;2023-06-10T01:32:54;3.70;;;3.30;;
71288;SDS011;59068;52.502;9.860;2023-06-10T01:35:20;5.97;;;3.27;;
71288;SDS011;59068;52.502;9.860;2023-06-10T01:37:48;6.17;;;3.80;;
71288;SDS011;59068;52.502;9.860;2023-06-10T01:40:14;3.83;;;3.47;;
71288;SDS011;59068;52.502;9.860;2023-06-10T01:42:39;5.67;;;3.70;;
71288;SDS011;59068;52.502;9.860;2023-06-10T01:45:05;4.80;;;3.40;;
71288;SDS011;59068;52.502;9.860;2023-06-10T01:47:31;5.77;;;3.63;;
71288;SDS011;59068;52.502;9.860;2023-06-10T01:49:56;4.93;;;3.47;;
71288;SDS011;59068;52.502;9.860;2023-06-10T01:52:22;5.63;;;3.33;;
71288;SDS011;59068;52.502;9.860;2023-06-10T01:54:47;5.87;;;3.73;;
71288;SDS011;59068;52.502;9.860;2023-06-10T01:57:12;5.03;;;3.60;;
71288;SDS011;59068;52.502;9.860;2023-06-10T01:59:38;6.00;;;3.53;;
71288;SDS011;59068;52.502;9.860;2023-06-10T02:02:04;5.03;;;3.93;;
71288;SDS011;59068;52.502;9.860;2023-06-10T02:04:29;5.60;;;3.67;;
71288;SDS011;59068;52.502;9.860;2023-06-10T02:06:55;5.97;;;3.67;;
71288;SDS011;59068;52.502;9.860;2023-06-10T02:09:20;5.70;;;3.73;;
71288;SDS011;59068;52.502;9.860;2023-06-10T02:11:46;5.30;;;3.97;;
71288;SDS011;59068;52.502;9.860;2023-06-10T02:14:11;4.00;;;3.60;;
71288;SDS011;59068;52.502;9.860;2023-06-10T02:16:36;4.90;;;3.37;;
71288;SDS011;59068;52.502;9.860;2023-06-10T02:19:02;5.13;;;3.67;;
71288;SDS011;59068;52.502;9.860;2023-06-10T02:21:30;4.73;;;3.63;;
71288;SDS011;59068;52.502;9.860;2023-06-10T02:23:56;5.77;;;3.67;;
71288;SDS011;59068;52.502;9.860;2023-06-10T02:26:21;4.77;;;3.57;;
71288;SDS011;59068;52.502;9.860;2023-06-10T02:28:48;3.93;;;3.50;;
71288;SDS011;59068;52.502;9.860;2023-06-10T02:31:13;4.77;;;3.43;;
71288;SDS011;59068;52.502;9.860;2023-06-10T02:33:38;5.17;;;3.30;;
71288;SDS011;59068;52.502;9.860;2023-06-10T02:36:05;4.07;;;3.37;;
71288;SDS011;59068;52.502;9.860;2023-06-10T02:38:31;5.67;;;3.40;;
71288;SDS011;59068;52.502;9.860;2023-06-10T02:40:56;4.53;;;3.63;;
71288;SDS011;59068;52.502;9.860;2023-06-10T02:43:21;7.83;;;3.90;;
71288;SDS011;59068;52.502;9.860;2023-06-10T02:45:47;6.07;;;3.80;;
71288;SDS011;59068;52.502;9.860;2023-06-10T02:48:12;4.00;;;3.40;;
71288;SDS011;59068;52.502;9.860;2023-06-10T02:50:37;4.63;;;3.77;;
71288;SDS011;59068;52.502;9.860;2023-06-10T02:53:05;5.63;;;3.80;;
71288;SDS011;59068;52.502;9.860;2023-06-10T02:55:30;5.53;;;3.73;;
71288;SDS011;59068;52.502;9.860;2023-06-10T02:57:55;4.93;;;3.70;;
71288;SDS011;59068;52.502;9.860;2023-06-10T03:00:21;6.57;;;3.70;;
71288;SDS011;59068;52.502;9.860;2023-06-10T03:02:47;6.33;;;4.07;;
71288;SDS011;59068;52.502;9.860;2023-06-10T03:05:13;4.73;;;3.67;;
71288;SDS011;59068;52.502;9.860;2023-06-10T03:07:38;4.47;;;3.50;;
71288;SDS011;59068;52.502;9.860;2023-06-10T03:10:04;5.43;;;3.93;;
71288;SDS011;59068;52.502;9.860;2023-06-10T03:12:31;5.47;;;3.97;;
71288;SDS011;59068;52.502;9.860;2023-06-10T03:14:56;4.13;;;3.73;;
71288;SDS011;59068;52.502;9.860;2023-06-10T03:17:21;6.80;;;3.77;;
71288;SDS011;59068;52.502;9.860;2023-06-10T03:19:47;5.63;;;4.03;;
71288;SDS011;59068;52.502;9.860;2023-06-10T03:22:13;8.43;;;4.20;;
71288;SDS011;59068;52.502;9.860;2023-06-10T03:24:39;4.37;;;3.97;;
71288;SDS011;59068;52.502;9.860;2023-06-10T03:27:08;5.07;;;3.83;;
71288;SDS011;59068;52.502;9.860;2023-06-10T03:29:34;8.70;;;4.47;;
71288;SDS011;59068;52.502;9.860;2023-06-10T03:32:00;5.70;;;4.37;;
71288;SDS011;59068;52.502;9.860;2023-06-10T03:34:25;5.90;;;3.97;;
71288;SDS011;59068;52.502;9.860;2023-06-10T03:36:51;5.53;;;4.30;;
71288;SDS011;59068;52.502;9.860;2023-06-10T03:39:19;6.30;;;4.90;;
71288;SDS011;59068;52.502;9.860;2023-06-10T03:41:44;6.53;;;4.67;;
71288;SDS011;59068;52.502;9.860;2023-06-10T03:44:10;5.93;;;4.80;;
71288;SDS011;59068;52.502;9.860;2023-06-10T03:46:35;6.47;;;5.20;;
71288;SDS011;59068;52.502;9.860;2023-06-10T03:49:00;8.10;;;5.20;;
71288;SDS011;59068;52.502;9.860;2023-06-10T03:51:26;7.90;;;6.27;;
71288;SDS011;59068;52.502;9.860;2023-06-10T03:53:52;8.13;;;6.57;;
71288;SDS011;59068;52.502;9.860;2023-06-10T03:56:17;9.27;;;6.53;;
71288;SDS011;59068;52.502;9.860;2023-06-10T03:58:43;8.03;;;6.80;;
71288;SDS011;59068;52.502;9.860;2023-06-10T04:01:08;7.70;;;7.00;;
71288;SDS011;59068;52.502;9.860;2023-06-10T04:03:33;8.30;;;6.77;;
71288;SDS011;59068;52.502;9.860;2023-06-10T04:05:59;9.47;;;7.60;;
71288;SDS011;59068;52.502;9.860;2023-06-10T04:08:24;8.90;;;6.80;;
71288;SDS011;59068;52.502;9.860;2023-06-10T04:10:50;12.80;;;7.00;;
71288;SDS011;59068;52.502;9.860;2023-06-10T04:13:16;7.63;;;6.70;;
71288;SDS011;59068;52.502;9.860;2023-06-10T04:15:41;7.83;;;6.90;;
71288;SDS011;59068;52.502;9.860;2023-06-10T04:18:06;7.03;;;6.23;;
71288;SDS011;59068;52.502;9.860;2023-06-10T04:20:31;9.67;;;6.57;;
71288;SDS011;59068;52.502;9.860;2023-06-10T04:22:57;8.60;;;5.57;;
71288;SDS011;59068;52.502;9.860;2023-06-10T04:25:22;8.30;;;5.40;;
71288;SDS011;59068;52.502;9.860;2023-06-10T04:27:49;7.73;;;5.43;;
71288;SDS011;59068;52.502;9.860;2023-06-10T04:30:14;8.37;;;5.87;;
71288;SDS011;59068;52.502;9.860;2023-06-10T04:32:40;8.63;;;5.57;;
71288;SDS011;59068;52.502;9.860;2023-06-10T04:35:05;8.03;;;6.07;;
71288;SDS011;59068;52.502;9.860;2023-06-10T04:37:31;8.97;;;5.57;;
71288;SDS011;59068;52.502;9.860;2023-06-10T04:39:57;7.97;;;5.73;;
71288;SDS011;59068;52.502;9.860;2023-06-10T04:42:22;8.93;;;5.77;;
71288;SDS011;59068;52.502;9.860;2023-06-10T04:44:47;8.33;;;5.80;;
71288;SDS011;59068;52.502;9.860;2023-06-10T04:47:13;8.50;;;5.80;;
71288;SDS011;59068;52.502;9.860;2023-06-10T04:49:38;6.63;;;5.87;;
71288;SDS011;59068;52.502;9.860;2023-06-10T04:52:04;7.17;;;5.17;;
71288;SDS011;59068;52.502;9.860;2023-06-10T04:54:30;8.77;;;6.00;;
71288;SDS011;59068;52.502;9.860;2023-06-10T04:56:55;12.27;;;6.77;;
71288;SDS011;59068;52.502;9.860;2023-06-10T04:59:20;9.00;;;5.80;;
71288;SDS011;59068;52.502;9.860;2023-06-10T05:01:46;9.73;;;5.57;;
71288;SDS011;59068;52.502;9.860;2023-06-10T05:04:11;8.43;;;5.63;;
71288;SDS011;59068;52.502;9.860;2023-06-10T05:06:36;8.30;;;5.40;;
71288;SDS011;59068;52.502;9.860;2023-06-10T05:09:02;7.80;;;5.60;;
71288;SDS011;59068;52.502;9.860;2023-06-10T05:11:27;8.13;;;5.73;;
71288;SDS011;59068;52.502;9.860;2023-06-10T05:13:53;6.07;;;4.90;;
71288;SDS011;59068;52.502;9.860;2023-06-10T05:16:18;7.20;;;5.23;;
71288;SDS011;59068;52.502;9.860;2023-06-10T05:18:43;9.17;;;6.10;;
71288;SDS011;59068;52.502;9.860;2023-06-10T05:21:09;7.20;;;5.30;;
71288;SDS011;59068;52.502;9.860;2023-06-10T05:23:34;8.07;;;4.87;;
71288;SDS011;59068;52.502;9.860;2023-06-10T05:26:00;6.93;;;5.77;;
71288;SDS011;59068;52.502;9.860;2023-06-10T05:28:25;7.57;;;5.03;;
71288;SDS011;59068;52.502;9.860;2023-06-10T05:30:51;7.50;;;5.30;;
71288;SDS011;59068;52.502;9.860;2023-06-10T05:33:16;6.23;;;5.00;;
71288;SDS011;59068;52.502;9.860;2023-06-10T05:35:41;7.53;;;4.97;;
71288;SDS011;59068;52.502;9.860;2023-06-10T05:38:07;7.17;;;5.40;;
71288;SDS011;59068;52.502;9.860;2023-06-10T05:40:32;9.00;;;5.20;;
71288;SDS011;59068;52.502;9.860;2023-06-10T05:42:57;7.73;;;4.80;;
71288;SDS011;59068;52.502;9.860;2023-06-10T05:45:23;8.97;;;5.07;;
71288;SDS011;59068;52.502;9.860;2023-06-10T05:47:48;6.87;;;4.97;;
71288;SDS011;59068;52.502;9.860;2023-06-10T05:50:13;8.13;;;5.43;;
71288;SDS011;59068;52.502;9.860;2023-06-10T05:52:39;6.43;;;4.70;;
71288;SDS011;59068;52.502;9.860;2023-06-10T05:55:07;6.83;;;4.83;;
71288;SDS011;59068;52.502;9.860;2023-06-10T05:57:33;7.40;;;4.53;;
71288;SDS011;59068;52.502;9.860;2023-06-10T05:59:59;5.00;;;4.20;;
71288;SDS011;59068;52.502;9.860;2023-06-10T06:02:24;7.93;;;5.00;;
71288;SDS011;59068;52.502;9.860;2023-06-10T06:04:49;7.70;;;5.07;;
71288;SDS011;59068;52.502;9.860;2023-06-10T06:07:15;7.30;;;5.00;;
71288;SDS011;59068;52.502;9.860;2023-06-10T06:09:40;9.20;;;4.60;;
71288;SDS011;59068;52.502;9.860;2023-06-10T06:12:05;8.53;;;5.10;;
71288;SDS011;59068;52.502;9.860;2023-06-10T06:14:32;6.03;;;4.30;;
71288;SDS011;59068;52.502;9.860;2023-06-10T06:16:58;6.47;;;4.40;;
71288;SDS011;59068;52.502;9.860;2023-06-10T06:19:23;7.80;;;4.67;;
71288;SDS011;59068;52.502;9.860;2023-06-10T06:21:48;9.10;;;4.40;;
71288;SDS011;59068;52.502;9.860;2023-06-10T06:24:15;7.87;;;4.43;;
71288;SDS011;59068;52.502;9.860;2023-06-10T06:26:41;7.60;;;4.90;;
71288;SDS011;59068;52.502;9.860;2023-06-10T06:29:07;7.57;;;5.20;;
71288;SDS011;59068;52.502;9.860;2023-06-10T06:31:32;7.17;;;4.20;;
71288;SDS011;59068;52.502;9.860;2023-06-10T06:33:57;5.23;;;4.47;;
71288;SDS011;59068;52.502;9.860;2023-06-10T06:36:23;6.30;;;4.30;;
71288;SDS011;59068;52.502;9.860;2023-06-10T06:38:48;7.10;;;4.20;;
71288;SDS011;59068;52.502;9.860;2023-06-10T06:41:13;5.20;;;4.57;;
71288;SDS011;59068;52.502;9.860;2023-06-10T06:43:39;8.50;;;4.60;;
71288;SDS011;59068;52.502;9.860;2023-06-10T06:46:04;6.60;;;4.60;;
71288;SDS011;59068;52.502;9.860;2023-06-10T06:48:30;7.07;;;4.33;;
71288;SDS011;59068;52.502;9.860;2023-06-10T06:50:55;4.80;;;4.10;;
71288;SDS011;59068;52.502;9.860;2023-06-10T06:53:22;5.27;;;4.27;;
71288;SDS011;59068;52.502;9.860;2023-06-10T06:55:47;5.90;;;4.23;;
71288;SDS011;59068;52.502;9.860;2023-06-10T06:58:12;7.40;;;4.40;;
71288;SDS011;59068;52.502;9.860;2023-06-10T07:00:38;6.90;;;4.70;;
71288;SDS011;59068;52.502;9.860;2023-06-10T07:03:03;6.00;;;4.57;;
71288;SDS011;59068;52.502;9.860;2023-06-10T07:05:28;9.63;;;4.43;;
71288;SDS011;59068;52.502;9.860;2023-06-10T07:07:55;8.10;;;4.17;;
71288;SDS011;59068;52.502;9.860;2023-06-10T07:10:21;8.17;;;4.60;;
71288;SDS011;59068;52.502;9.860;2023-06-10T07:12:48;6.03;;;4.43;;
71288;SDS011;59068;52.502;9.860;2023-06-10T07:15:13;6.00;;;4.20;;
71288;SDS011;59068;52.502;9.860;2023-06-10T07:17:38;5.87;;;4.30;;
71288;SDS011;59068;52.502;9.860;2023-06-10T07:20:04;7.07;;;4.57;;
71288;SDS011;59068;52.502;9.860;2023-06-10T07:22:30;7.07;;;4.97;;
71288;SDS011;59068;52.502;9.860;2023-06-10T07:24:55;6.67;;;4.70;;
71288;SDS011;59068;52.502;9.860;2023-06-10T07:27:21;6.47;;;4.63;;
71288;SDS011;59068;52.502;9.860;2023-06-10T07:29:46;7.30;;;4.43;;
71288;SDS011;59068;52.502;9.860;2023-06-10T07:32:11;6.63;;;4.23;;
71288;SDS011;59068;52.502;9.860;2023-06-10T07:34:36;6.03;;;4.33;;
71288;SDS011;59068;52.502;9.860;2023-06-10T07:37:02;7.00;;;4.57;;
71288;SDS011;59068;52.502;9.860;2023-06-10T07:39:27;5.10;;;4.50;;
71288;SDS011;59068;52.502;9.860;2023-06-10T07:41:53;5.67;;;4.50;;
71288;SDS011;59068;52.502;9.860;2023-06-10T07:44:19;7.47;;;4.50;;
71288;SDS011;59068;52.502;9.860;2023-06-10T07:46:44;6.97;;;4.97;;
71288;SDS011;59068;52.502;9.860;2023-06-10T07:49:10;4.73;;;4.30;;
71288;SDS011;59068;52.502;9.860;2023-06-10T07:51:35;6.07;;;4.63;;
71288;SDS011;59068;52.502;9.860;2023-06-10T07:54:01;9.37;;;4.67;;
71288;SDS011;59068;52.502;9.860;2023-06-10T07:56:26;5.27;;;4.70;;
71288;SDS011;59068;52.502;9.860;2023-06-10T07:58:52;8.80;;;4.53;;
71288;SDS011;59068;52.502;9.860;2023-06-10T08:01:17;5.23;;;4.73;;
71288;SDS011;59068;52.502;9.860;2023-06-10T08:03:43;4.80;;;4.20;;
71288;SDS011;59068;52.502;9.860;2023-06-10T08:06:08;6.47;;;4.23;;
71288;SDS011;59068;52.502;9.860;2023-06-10T08:08:36;5.00;;;4.50;;
71288;SDS011;59068;52.502;9.860;2023-06-10T08:11:06;5.47;;;4.73;;
71288;SDS011;59068;52.502;9.860;2023-06-10T08:13:31;6.00;;;4.40;;
71288;SDS011;59068;52.502;9.860;2023-06-10T08:15:57;5.60;;;4.80;;
71288;SDS011;59068;52.502;9.860;2023-06-10T08:18:22;4.77;;;4.30;;
71288;SDS011;59068;52.502;9.860;2023-06-10T08:20:47;4.77;;;3.93;;
71288;SDS011;59068;52.502;9.860;2023-06-10T08:23:13;4.97;;;4.57;;
71288;SDS011;59068;52.502;9.860;2023-06-10T08:25:39;9.70;;;5.17;;
71288;SDS011;59068;52.502;9.860;2023-06-10T08:28:04;10.70;;;4.97;;
71288;SDS011;59068;52.502;9.860;2023-06-10T08:30:29;9.77;;;4.30;;
71288;SDS011;59068;52.502;9.860;2023-06-10T08:32:55;6.40;;;4.73;;
71288;SDS011;59068;52.502;9.860;2023-06-10T08:35:20;6.97;;;4.80;;
71288;SDS011;59068;52.502;9.860;2023-06-10T08:37:46;4.97;;;4.20;;
71288;SDS011;59068;52.502;9.860;2023-06-10T08:40:11;5.47;;;4.70;;
71288;SDS011;59068;52.502;9.860;2023-06-10T08:45:12;5.40;;;4.17;;
71288;SDS011;59068;52.502;9.860;2023-06-10T08:47:42;4.97;;;4.43;;
71288;SDS011;59068;52.502;9.860;2023-06-10T08:50:09;5.30;;;4.37;;
71288;SDS011;59068;52.502;9.860;2023-06-10T08:52:36;5.90;;;4.00;;
71288;SDS011;59068;52.502;9.860;2023-06-10T08:57:30;4.53;;;4.13;;
71288;SDS011;59068;52.502;9.860;2023-06-10T08:59:56;6.50;;;4.40;;
71288;SDS011;59068;52.502;9.860;2023-06-10T09:02:22;5.33;;;4.37;;
71288;SDS011;59068;52.502;9.860;2023-06-10T09:04:49;5.37;;;4.03;;
71288;SDS011;59068;52.502;9.860;2023-06-10T09:07:17;12.17;;;3.97;;
71288;SDS011;59068;52.502;9.860;2023-06-10T09:09:43;4.40;;;4.00;;
71288;SDS011;59068;52.502;9.860;2023-06-10T09:12:09;4.00;;;3.60;;
71288;SDS011;59068;52.502;9.860;2023-06-10T09:14:35;6.33;;;4.03;;
71288;SDS011;59068;52.502;9.860;2023-06-10T09:17:01;5.63;;;3.97;;
71288;SDS011;59068;52.502;9.860;2023-06-10T09:19:27;4.87;;;3.50;;
71288;SDS011;59068;52.502;9.860;2023-06-10T09:21:53;6.03;;;3.93;;
71288;SDS011;59068;52.502;9.860;2023-06-10T09:24:18;4.30;;;3.83;;
71288;SDS011;59068;52.502;9.860;2023-06-10T09:26:44;5.90;;;4.40;;
71288;SDS011;59068;52.502;9.860;2023-06-10T09:29:10;5.97;;;4.20;;
71288;SDS011;59068;52.502;9.860;2023-06-10T09:31:40;6.77;;;4.73;;
71288;SDS011;59068;52.502;9.860;2023-06-10T09:34:09;6.23;;;4.53;;
71288;SDS011;59068;52.502;9.860;2023-06-10T09:36:35;4.80;;;4.13;;
71288;SDS011;59068;52.502;9.860;2023-06-10T09:39:01;6.97;;;4.40;;
71288;SDS011;59068;52.502;9.860;2023-06-10T09:41:34;5.23;;;3.70;;
71288;SDS011;59068;52.502;9.860;2023-06-10T09:44:00;4.83;;;4.20;;
71288;SDS011;59068;52.502;9.860;2023-06-10T09:46:30;4.23;;;3.77;;
71288;SDS011;59068;52.502;9.860;2023-06-10T09:48:59;4.37;;;3.97;;
71288;SDS011;59068;52.502;9.860;2023-06-10T09:51:25;6.67;;;4.40;;
71288;SDS011;59068;52.502;9.860;2023-06-10T09:53:51;5.97;;;4.43;;
71288;SDS011;59068;52.502;9.860;2023-06-10T09:56:16;6.30;;;4.70;;
71288;SDS011;59068;52.502;9.860;2023-06-10T09:58:42;6.33;;;4.17;;
71288;SDS011;59068;52.502;9.860;2023-06-10T10:01:12;5.67;;;4.60;;
71288;SDS011;59068;52.502;9.860;2023-06-10T10:06:17;6.10;;;4.40;;
71288;SDS011;59068;52.502;9.860;2023-06-10T10:08:44;5.70;;;4.00;;
71288;SDS011;59068;52.502;9.860;2023-06-10T10:11:11;9.23;;;4.10;;
71288;SDS011;59068;52.502;9.860;2023-06-10T10:13:36;5.33;;;4.27;;
71288;SDS011;59068;52.502;9.860;2023-06-10T10:16:04;4.97;;;3.93;;
71288;SDS011;59068;52.502;9.860;2023-06-10T10:18:31;4.77;;;4.27;;
71288;SDS011;59068;52.502;9.860;2023-06-10T10:20:58;3.93;;;3.50;;
71288;SDS011;59068;52.502;9.860;2023-06-10T10:23:34;5.57;;;3.43;;
71288;SDS011;59068;52.502;9.860;2023-06-10T10:26:10;4.53;;;3.70;;
71288;SDS011;59068;52.502;9.860;2023-06-10T10:28:38;4.60;;;3.73;;
71288;SDS011;59068;52.502;9.860;2023-06-10T10:31:10;6.47;;;3.90;;
71288;SDS011;59068;52.502;9.860;2023-06-10T10:33:42;4.17;;;3.50;;
71288;SDS011;59068;52.502;9.860;2023-06-10T10:36:14;4.67;;;3.37;;
71288;SDS011;59068;52.502;9.860;2023-06-10T10:38:40;4.57;;;4.13;;
71288;SDS011;59068;52.502;9.860;2023-06-10T10:41:06;6.90;;;3.87;;
71288;SDS011;59068;52.502;9.860;2023-06-10T10:43:32;4.93;;;3.93;;
71288;SDS011;59068;52.502;9.860;2023-06-10T10:46:01;4.03;;;3.70;;
71288;SDS011;59068;52.502;9.860;2023-06-10T10:48:36;9.00;;;3.90;;
71288;SDS011;59068;52.502;9.860;2023-06-10T10:51:02;5.63;;;4.10;;
71288;SDS011;59068;52.502;9.860;2023-06-10T10:53:27;4.33;;;3.93;;
71288;SDS011;59068;52.502;9.860;2023-06-10T10:58:25;5.27;;;3.87;;
71288;SDS011;59068;52.502;9.860;2023-06-10T11:00:51;4.13;;;3.70;;
71288;SDS011;59068;52.502;9.860;2023-06-10T11:03:16;7.13;;;3.97;;
71288;SDS011;59068;52.502;9.860;2023-06-10T11:05:46;5.97;;;3.90;;
71288;SDS011;59068;52.502;9.860;2023-06-10T11:08:15;4.50;;;4.10;;
71288;SDS011;59068;52.502;9.860;2023-06-10T11:11:00;5.40;;;4.27;;
71288;SDS011;59068;52.502;9.860;2023-06-10T11:13:26;4.53;;;4.13;;
71288;SDS011;59068;52.502;9.860;2023-06-10T11:15:52;5.63;;;4.37;;
71288;SDS011;59068;52.502;9.860;2023-06-10T11:18:24;6.10;;;4.03;;
71288;SDS011;59068;52.502;9.860;2023-06-10T11:26:00;5.00;;;4.23;;
71288;SDS011;59068;52.502;9.860;2023-06-10T11:28:41;4.60;;;4.20;;
71288;SDS011;59068;52.502;9.860;2023-06-10T11:31:19;4.67;;;4.17;;
71288;SDS011;59068;52.502;9.860;2023-06-10T11:33:46;4.73;;;4.23;;
71288;SDS011;59068;52.502;9.860;2023-06-10T11:36:12;4.67;;;4.27;;
71288;SDS011;59068;52.502;9.860;2023-06-10T11:38:38;5.40;;;4.67;;
71288;SDS011;59068;52.502;9.860;2023-06-10T11:41:03;5.13;;;4.63;;
71288;SDS011;59068;52.502;9.860;2023-06-10T11:43:29;6.00;;;4.63;;
71288;SDS011;59068;52.502;9.860;2023-06-10T11:45:55;5.70;;;4.83;;
71288;SDS011;59068;52.502;9.860;2023-06-10T11:48:23;4.93;;;4.43;;
71288;SDS011;59068;52.502;9.860;2023-06-10T11:50:48;5.50;;;5.00;;
71288;SDS011;59068;52.502;9.860;2023-06-10T11:53:14;4.70;;;4.17;;
71288;SDS011;59068;52.502;9.860;2023-06-10T11:55:42;4.97;;;4.57;;
71288;SDS011;59068;52.502;9.860;2023-06-10T11:58:27;4.30;;;3.90;;
71288;SDS011;59068;52.502;9.860;2023-06-10T12:00:53;5.70;;;5.20;;
71288;SDS011;59068;52.502;9.860;2023-06-10T12:03:22;5.80;;;5.23;;
71288;SDS011;59068;52.502;9.860;2023-06-10T12:05:58;6.20;;;4.70;;
71288;SDS011;59068;52.502;9.860;2023-06-10T12:08:25;7.27;;;4.83;;
71288;SDS011;59068;52.502;9.860;2023-06-10T12:10:51;5.30;;;4.80;;
71288;SDS011;59068;52.502;9.860;2023-06-10T12:13:16;5.50;;;4.57;;
71288;SDS011;59068;52.502;9.860;2023-06-10T12:15:45;5.80;;;4.90;;
71288;SDS011;59068;52.502;9.860;2023-06-10T12:18:16;6.53;;;5.27;;
71288;SDS011;59068;52.502;9.860;2023-06-10T12:20:42;6.20;;;4.87;;
71288;SDS011;59068;52.502;9.860;2023-06-10T12:23:08;5.97;;;5.07;;
71288;SDS011;59068;52.502;9.860;2023-06-10T12:25:34;6.13;;;5.10;;
71288;SDS011;59068;52.502;9.860;2023-06-10T12:28:01;6.20;;;5.20;;
71288;SDS011;59068;52.502;9.860;2023-06-10T12:30:27;5.27;;;4.77;;
71288;SDS011;59068;52.502;9.860;2023-06-10T12:32:53;5.60;;;5.10;;
71288;SDS011;59068;52.502;9.860;2023-06-10T12:35:20;5.37;;;4.97;;
71288;SDS011;59068;52.502;9.860;2023-06-10T12:38:07;5.77;;;5.27;;
71288;SDS011;59068;52.502;9.860;2023-06-10T12:40:34;5.73;;;5.10;;
71288;SDS011;59068;52.502;9.860;2023-06-10T12:43:05;5.07;;;4.67;;
71288;SDS011;59068;52.502;9.860;2023-06-10T12:45:31;5.87;;;5.33;;
71288;SDS011;59068;52.502;9.860;2023-06-10T12:48:11;6.50;;;4.90;;
71288;SDS011;59068;52.502;9.860;2023-06-10T12:50:50;5.60;;;5.10;;
71288;SDS011;59068;52.502;9.860;2023-06-10T12:53:22;5.77;;;5.07;;
71288;SDS011;59068;52.502;9.860;2023-06-10T12:55:48;5.90;;;5.37;;
71288;SDS011;59068;52.502;9.860;2023-06-10T12:58:14;5.60;;;5.20;;
71288;SDS011;59068;52.502;9.860;2023-06-10T13:00:39;6.37;;;5.03;;
71288;SDS011;59068;52.502;9.860;2023-06-10T13:03:06;5.80;;;5.30;;
71288;SDS011;59068;52.502;9.860;2023-06-10T13:05:32;6.53;;;5.47;;
71288;SDS011;59068;52.502;9.860;2023-06-10T13:07:58;5.87;;;5.43;;
71288;SDS011;59068;52.502;9.860;2023-06-10T13:10:25;5.93;;;5.30;;
71288;SDS011;59068;52.502;9.860;2023-06-10T13:12:51;6.10;;;5.43;;
71288;SDS011;59068;52.502;9.860;2023-06-10T13:15:16;5.80;;;5.30;;
71288;SDS011;59068;52.502;9.860;2023-06-10T13:17:42;6.10;;;5.53;;
71288;SDS011;59068;52.502;9.860;2023-06-10T13:20:09;7.03;;;5.57;;
71288;SDS011;59068;52.502;9.860;2023-06-10T13:22:34;5.13;;;4.73;;
71288;SDS011;59068;52.502;9.860;2023-06-10T13:25:02;5.77;;;5.37;;
71288;SDS011;59068;52.502;9.860;2023-06-10T13:27:28;5.90;;;5.40;;
71288;SDS011;59068;52.502;9.860;2023-06-10T13:29:54;5.57;;;5.17;;
71288;SDS011;59068;52.502;9.860;2023-06-10T13:32:19;6.87;;;6.00;;
71288;SDS011;59068;52.502;9.860;2023-06-10T13:34:44;5.93;;;5.43;;
71288;SDS011;59068;52.502;9.860;2023-06-10T13:37:10;5.90;;;5.40;;
71288;SDS011;59068;52.502;9.860;2023-06-10T13:39:37;6.30;;;5.27;;
71288;SDS011;59068;52.502;9.860;2023-06-10T13:42:03;5.83;;;5.33;;
71288;SDS011;59068;52.502;9.860;2023-06-10T13:44:28;5.83;;;5.43;;
71288;SDS011;59068;52.502;9.860;2023-06-10T13:46:55;5.73;;;5.23;;
71288;SDS011;59068;52.502;9.860;2023-06-10T13:49:21;6.13;;;5.63;;
71288;SDS011;59068;52.502;9.860;2023-06-10T13:51:46;6.23;;;5.43;;
71288;SDS011;59068;52.502;9.860;2023-06-10T13:54:12;5.83;;;5.30;;
71288;SDS011;59068;52.502;9.860;2023-06-10T13:56:39;6.80;;;5.87;;
71288;SDS011;59068;52.502;9.860;2023-06-10T13:59:04;5.87;;;5.30;;
71288;SDS011;59068;52.502;9.860;2023-06-10T14:01:30;6.83;;;5.10;;
71288;SDS011;59068;52.502;9.860;2023-06-10T14:03:55;5.77;;;5.37;;
71288;SDS011;59068;52.502;9.860;2023-06-10T14:06:21;6.30;;;5.73;;
71288;SDS011;59068;52.502;9.860;2023-06-10T14:08:47;6.00;;;5.40;;
71288;SDS011;59068;52.502;9.860;2023-06-10T14:11:12;5.73;;;5.27;;
71288;SDS011;59068;52.502;9.860;2023-06-10T14:13:38;6.93;;;5.47;;
71288;SDS011;59068;52.502;9.860;2023-06-10T14:16:04;5.83;;;5.43;;
71288;SDS011;59068;52.502;9.860;2023-06-10T14:18:29;5.37;;;4.97;;
71288;SDS011;59068;52.502;9.860;2023-06-10T14:20:55;5.77;;;5.20;;
71288;SDS011;59068;52.502;9.860;2023-06-10T14:23:20;6.23;;;5.63;;
71288;SDS011;59068;52.502;9.860;2023-06-10T14:25:47;5.83;;;4.83;;
71288;SDS011;59068;52.502;9.860;2023-06-10T14:28:12;5.97;;;5.27;;
71288;SDS011;59068;52.502;9.860;2023-06-10T14:30:38;5.60;;;5.10;;
71288;SDS011;59068;52.502;9.860;2023-06-10T14:33:03;5.37;;;4.93;;
71288;SDS011;59068;52.502;9.860;2023-06-10T14:35:28;4.97;;;4.67;;
71288;SDS011;59068;52.502;9.860;2023-06-10T14:37:54;5.67;;;5.17;;
71288;SDS011;59068;52.502;9.860;2023-06-10T14:40:19;5.50;;;5.03;;
71288;SDS011;59068;52.502;9.860;2023-06-10T14:42:47;5.43;;;5.00;;
71288;SDS011;59068;52.502;9.860;2023-06-10T14:45:13;5.43;;;5.00;;
71288;SDS011;59068;52.502;9.860;2023-06-10T14:47:39;5.87;;;5.33;;
71288;SDS011;59068;52.502;9.860;2023-06-10T14:50:05;5.13;;;4.83;;
71288;SDS011;59068;52.502;9.860;2023-06-10T14:52:30;5.93;;;5.40;;
71288;SDS011;59068;52.502;9.860;2023-06-10T14:54:56;5.80;;;5.37;;
71288;SDS011;59068;52.502;9.860;2023-06-10T14:57:21;5.03;;;4.60;;
71288;SDS011;59068;52.502;9.860;2023-06-10T14:59:46;5.40;;;4.97;;
71288;SDS011;59068;52.502;9.860;2023-06-10T15:02:12;8.53;;;5.40;;